Thunder radar more information blitzortung!


Radar de pluja more information rain snow radar


Visita la nostra xarxa de llocs de meteo:

Template documentation
and downloads

And another site



No particular awareness of the weather is required.    There are no Weather-warnings

Pagina Historial Weather Underground text

Diari Resum Octubre 21, 2017 Unitats:  Tant    Imperial   Mètric
« Previous Dia
SegĂźent Dia »
Diari Setmana Mensual Anual Personalitzada
  Maxima: Minima: Media:
Temperatura: 77.5 °F /  25.3 °C 55.6 °F /  13.1 °C 68.2 °F /  20.1 °C
Punt de rosada: 60.4 °F /  15.8 °C 46.4 °F /  8.0 °C 57.6 °F /  14.2 °C
Humitat: 93 % 53 % 70 %
Wind Speed: 9.2 mph /  14.8 km/h - 2.7 mph /  4.3 km/h
RĂ fegues de vent: 9.2 mph /  14.8 km/h - -
Vent:- - South
Pression baro: 30.2 in /  1023.9 hPa 30.1 in /  1018.8 hPa -
Precipitacions: 0 in /  0.0 mm    
Historical Graphs
 
 
Dades de taula per Octubre 21, 2017
Temps Temperatura Punt de rosada Pression baro Vent Wind Speed RĂ fegues de vent Humitat Rainfall Rate (Hourly)
00:03 61 °F /  16.1 °C 56.5 °F /  13.6 °C 30.2 in /  1020.9 hPa NNW 2.3 mph /  3.7 km/h 2.3 mph /  3.7 km/h 85 % 0 in /  0.0 mm
03:50 55.6 °F /  13.1 °C 53.6 °F /  12.0 °C 30.1 in /  1019.9 hPa Calm     93 % 0 in /  0.0 mm
04:00 55.9 °F /  13.3 °C 54 °F /  12.2 °C 30.1 in /  1019.9 hPa Calm     93 % 0 in /  0.0 mm
04:10 56.1 °F /  13.4 °C 53.8 °F /  12.1 °C 30.1 in /  1019.9 hPa NNE 2 mph /  3.2 km/h 3 mph /  4.8 km/h 92 % 0 in /  0.0 mm
04:20 57 °F /  13.9 °C 54.7 °F /  12.6 °C 30.1 in /  1019.9 hPa Calm   3 mph /  4.8 km/h 92 % 0 in /  0.0 mm
04:30 57.7 °F /  14.3 °C 55 °F /  12.8 °C 30.2 in /  1020.9 hPa ENE 1 mph /  1.6 km/h 2 mph /  3.2 km/h 91 % 0 in /  0.0 mm
04:40 58.3 °F /  14.6 °C 55.4 °F /  13.0 °C 30.2 in /  1020.9 hPa East 2 mph /  3.2 km/h 4 mph /  6.4 km/h 90 % 0 in /  0.0 mm
04:50 58.6 °F /  14.8 °C 55 °F /  12.8 °C 30.2 in /  1020.9 hPa ESE 2 mph /  3.2 km/h 3 mph /  4.8 km/h 88 % 0 in /  0.0 mm
05:00 59.9 °F /  15.5 °C 55.9 °F /  13.3 °C 30.2 in /  1020.9 hPa East 1 mph /  1.6 km/h 2 mph /  3.2 km/h 87 % 0 in /  0.0 mm
10:10 60.8 °F /  16.0 °C 56.3 °F /  13.5 °C 30.2 in /  1020.9 hPa SW 2.3 mph /  3.7 km/h 2.3 mph /  3.7 km/h 85 % 0 in /  0.0 mm
10:11 61 °F /  16.1 °C 56.5 °F /  13.6 °C 30.2 in /  1020.9 hPa SW 1.2 mph /  1.9 km/h   85 % 0 in /  0.0 mm
10:13 61.5 °F /  16.4 °C 57 °F /  13.9 °C 30.2 in /  1020.9 hPa Calm     85 % 0 in /  0.0 mm
10:18 61.5 °F /  16.4 °C 56.7 °F /  13.7 °C 30.2 in /  1020.9 hPa SW 2.3 mph /  3.7 km/h 2.3 mph /  3.7 km/h 84 % 0 in /  0.0 mm
10:23 61.7 °F /  16.5 °C 56.8 °F /  13.8 °C 30.2 in /  1020.9 hPa SSW 2.3 mph /  3.7 km/h   84 % 0 in /  0.0 mm
10:28 63.1 °F /  17.3 °C 57.6 °F /  14.2 °C 30.2 in /  1021.9 hPa ESE 2.3 mph /  3.7 km/h 2.3 mph /  3.7 km/h 82 % 0 in /  0.0 mm
10:33 63.7 °F /  17.6 °C 57.7 °F /  14.3 °C 30.2 in /  1021.9 hPa NNE 2.4 mph /  3.9 km/h 2.4 mph /  3.9 km/h 81 % 0 in /  0.0 mm
10:38 63.7 °F /  17.6 °C 57.7 °F /  14.3 °C 30.2 in /  1021.9 hPa ENE 2.3 mph /  3.7 km/h 2.3 mph /  3.7 km/h 81 % 0 in /  0.0 mm
10:43 63.3 °F /  17.4 °C 57 °F /  13.9 °C 30.2 in /  1021.9 hPa ESE 2.3 mph /  3.7 km/h 2.6 mph /  4.2 km/h 80 % 0 in /  0.0 mm
10:48 63.9 °F /  17.7 °C 57.6 °F /  14.2 °C 30.2 in /  1021.9 hPa ESE 2.3 mph /  3.7 km/h 2.3 mph /  3.7 km/h 80 % 0 in /  0.0 mm
10:53 65.1 °F /  18.4 °C 58.5 °F /  14.7 °C 30.2 in /  1021.9 hPa South 2.3 mph /  3.7 km/h 2.3 mph /  3.7 km/h 79 % 0 in /  0.0 mm
10:58 65.3 °F /  18.5 °C 58.6 °F /  14.8 °C 30.2 in /  1021.9 hPa ENE 2.3 mph /  3.7 km/h 2.3 mph /  3.7 km/h 79 % 0 in /  0.0 mm
11:03 66 °F /  18.9 °C 59 °F /  15.0 °C 30.2 in /  1021.9 hPa SSE 2.3 mph /  3.7 km/h 2.3 mph /  3.7 km/h 78 % 0 in /  0.0 mm
11:08 66.7 °F /  19.3 °C 59.4 °F /  15.2 °C 30.2 in /  1021.9 hPa SE 1.2 mph /  1.9 km/h   77 % 0 in /  0.0 mm
11:13 66.9 °F /  19.4 °C 59.2 °F /  15.1 °C 30.2 in /  1021.9 hPa ESE 2.4 mph /  3.9 km/h 2.4 mph /  3.9 km/h 76 % 0 in /  0.0 mm
11:18 66.7 °F /  19.3 °C 59.4 °F /  15.2 °C 30.2 in /  1021.9 hPa NE 1.4 mph /  2.3 km/h 1.4 mph /  2.3 km/h 77 % 0 in /  0.0 mm
11:23 67.3 °F /  19.6 °C 59.7 °F /  15.4 °C 30.2 in /  1021.9 hPa ENE 2.3 mph /  3.7 km/h 2.3 mph /  3.7 km/h 77 % 0 in /  0.0 mm
11:28 67.3 °F /  19.6 °C 59.7 °F /  15.4 °C 30.2 in /  1021.9 hPa NNE 1.2 mph /  1.9 km/h 1.2 mph /  1.9 km/h 77 % 0 in /  0.0 mm
11:33 67.5 °F /  19.7 °C 59.5 °F /  15.3 °C 30.2 in /  1021.9 hPa ENE 2.3 mph /  3.7 km/h 2.3 mph /  3.7 km/h 76 % 0 in /  0.0 mm
11:38 68 °F /  20.0 °C 59.7 °F /  15.4 °C 30.2 in /  1021.9 hPa ENE 2.3 mph /  3.7 km/h 2.3 mph /  3.7 km/h 75 % 0 in /  0.0 mm
11:43 67.8 °F /  19.9 °C 58.8 °F /  14.9 °C 30.2 in /  1021.9 hPa East 3.5 mph /  5.6 km/h 3.5 mph /  5.6 km/h 73 % 0 in /  0.0 mm
11:48 68.2 °F /  20.1 °C 59.2 °F /  15.1 °C 30.2 in /  1021.9 hPa East 2.9 mph /  4.7 km/h 2.9 mph /  4.7 km/h 73 % 0 in /  0.0 mm
11:53 68.4 °F /  20.2 °C 59.7 °F /  15.4 °C 30.2 in /  1021.9 hPa ESE 3.5 mph /  5.6 km/h 3.5 mph /  5.6 km/h 74 % 0 in /  0.0 mm
11:58 68.5 °F /  20.3 °C 59.5 °F /  15.3 °C 30.2 in /  1021.9 hPa NNE 3.5 mph /  5.6 km/h 3.5 mph /  5.6 km/h 73 % 0 in /  0.0 mm
12:03 68.4 °F /  20.2 °C 59.4 °F /  15.2 °C 30.2 in /  1021.9 hPa NE 2.3 mph /  3.7 km/h 2.3 mph /  3.7 km/h 73 % 0 in /  0.0 mm
12:08 68.7 °F /  20.4 °C 59.4 °F /  15.2 °C 30.2 in /  1021.9 hPa ENE 2.3 mph /  3.7 km/h 2.3 mph /  3.7 km/h 72 % 0 in /  0.0 mm
12:13 69.3 °F /  20.7 °C 59.7 °F /  15.4 °C 30.2 in /  1021.9 hPa NE 3.5 mph /  5.6 km/h 3.5 mph /  5.6 km/h 72 % 0 in /  0.0 mm
12:18 68.9 °F /  20.5 °C 59.2 °F /  15.1 °C 30.2 in /  1021.9 hPa ENE 2.3 mph /  3.7 km/h 2.3 mph /  3.7 km/h 71 % 0 in /  0.0 mm
12:23 69.6 °F /  20.9 °C 59.7 °F /  15.4 °C 30.2 in /  1021.9 hPa ESE 4.6 mph /  7.4 km/h 4.6 mph /  7.4 km/h 71 % 0 in /  0.0 mm
12:28 69.6 °F /  20.9 °C 58.6 °F /  14.8 °C 30.2 in /  1021.9 hPa ESE 5.8 mph /  9.3 km/h 5.8 mph /  9.3 km/h 68 % 0 in /  0.0 mm
12:30 75.2 °F /  24.0 °C 58.5 °F /  14.7 °C 30.1 in /  1018.8 hPa SW 2 mph /  3.2 km/h 3 mph /  4.8 km/h 56 % 0 in /  0.0 mm
12:33 69.3 °F /  20.7 °C 59.2 °F /  15.1 °C 30.2 in /  1021.9 hPa NNE 3.6 mph /  5.8 km/h 3.6 mph /  5.8 km/h 70 % 0 in /  0.0 mm
12:38 70 °F /  21.1 °C 59.7 °F /  15.4 °C 30.2 in /  1021.9 hPa ENE 4.6 mph /  7.4 km/h 4.6 mph /  7.4 km/h 70 % 0 in /  0.0 mm
12:40 75.2 °F /  24.0 °C 58.5 °F /  14.7 °C 30.1 in /  1018.8 hPa SW 3 mph /  4.8 km/h 6 mph /  9.7 km/h 56 % 0 in /  0.0 mm
12:43 70.3 °F /  21.3 °C 59.7 °F /  15.4 °C 30.2 in /  1021.9 hPa East 2.3 mph /  3.7 km/h 2.3 mph /  3.7 km/h 69 % 0 in /  0.0 mm
12:48 70.7 °F /  21.5 °C 60.1 °F /  15.6 °C 30.2 in /  1021.9 hPa ENE 4.9 mph /  7.9 km/h 4.9 mph /  7.9 km/h 69 % 0 in /  0.0 mm
12:53 70.7 °F /  21.5 °C 59.5 °F /  15.3 °C 30.2 in /  1021.9 hPa NNE 3.6 mph /  5.8 km/h 3.6 mph /  5.8 km/h 68 % 0 in /  0.0 mm
12:58 71.1 °F /  21.7 °C 60.1 °F /  15.6 °C 30.2 in /  1020.9 hPa ESE 3.3 mph /  5.3 km/h 3.3 mph /  5.3 km/h 68 % 0 in /  0.0 mm
13:03 71.2 °F /  21.8 °C 59.4 °F /  15.2 °C 30.2 in /  1020.9 hPa ESE 3.5 mph /  5.6 km/h 3.5 mph /  5.6 km/h 66 % 0 in /  0.0 mm
13:08 72 °F /  22.2 °C 59.2 °F /  15.1 °C 30.2 in /  1020.9 hPa SSE 2.3 mph /  3.7 km/h   64 % 0 in /  0.0 mm
13:13 72 °F /  22.2 °C 59.5 °F /  15.3 °C 30.2 in /  1020.9 hPa East 4.6 mph /  7.4 km/h 4.6 mph /  7.4 km/h 65 % 0 in /  0.0 mm
13:18 72 °F /  22.2 °C 59.2 °F /  15.1 °C 30.2 in /  1020.9 hPa ENE 3.5 mph /  5.6 km/h 3.5 mph /  5.6 km/h 64 % 0 in /  0.0 mm
13:23 72.3 °F /  22.4 °C 59.5 °F /  15.3 °C 30.2 in /  1020.9 hPa ENE 4 mph /  6.4 km/h 4 mph /  6.4 km/h 64 % 0 in /  0.0 mm
13:28 72.3 °F /  22.4 °C 59.9 °F /  15.5 °C 30.1 in /  1019.9 hPa NW 3.5 mph /  5.6 km/h 3.5 mph /  5.6 km/h 65 % 0 in /  0.0 mm
13:33 73.2 °F /  22.9 °C 60.3 °F /  15.7 °C 30.1 in /  1019.9 hPa NNW 1.6 mph /  2.6 km/h   64 % 0 in /  0.0 mm
13:38 73.4 °F /  23.0 °C 58.6 °F /  14.8 °C 30.1 in /  1019.9 hPa NW 4.6 mph /  7.4 km/h 4.6 mph /  7.4 km/h 60 % 0 in /  0.0 mm
13:43 73.4 °F /  23.0 °C 58.3 °F /  14.6 °C 30.1 in /  1019.9 hPa SE 3.5 mph /  5.6 km/h 3.5 mph /  5.6 km/h 59 % 0 in /  0.0 mm
13:48 73.8 °F /  23.2 °C 59 °F /  15.0 °C 30.1 in /  1019.9 hPa ESE 2.9 mph /  4.7 km/h 2.9 mph /  4.7 km/h 60 % 0 in /  0.0 mm
13:53 73.6 °F /  23.1 °C 58.8 °F /  14.9 °C 30.1 in /  1019.9 hPa ESE 3.5 mph /  5.6 km/h 3.5 mph /  5.6 km/h 60 % 0 in /  0.0 mm
13:58 74.1 °F /  23.4 °C 58.8 °F /  14.9 °C 30.1 in /  1019.9 hPa SSW 2.3 mph /  3.7 km/h 2.6 mph /  4.2 km/h 59 % 0 in /  0.0 mm
14:03 75 °F /  23.9 °C 59.2 °F /  15.1 °C 30.1 in /  1019.9 hPa SE 4.6 mph /  7.4 km/h 4.6 mph /  7.4 km/h 58 % 0 in /  0.0 mm
14:08 74.7 °F /  23.7 °C 59.4 °F /  15.2 °C 30.1 in /  1019.9 hPa ENE 3.5 mph /  5.6 km/h 3.5 mph /  5.6 km/h 59 % 0 in /  0.0 mm
14:13 74.7 °F /  23.7 °C 59.4 °F /  15.2 °C 30.1 in /  1019.9 hPa West 1.6 mph /  2.6 km/h 1.6 mph /  2.6 km/h 59 % 0 in /  0.0 mm
14:18 75 °F /  23.9 °C 59.7 °F /  15.4 °C 30.1 in /  1019.9 hPa ENE 2.3 mph /  3.7 km/h 2.3 mph /  3.7 km/h 59 % 0 in /  0.0 mm
14:23 75.4 °F /  24.1 °C 60.1 °F /  15.6 °C 30.1 in /  1019.9 hPa SE 4.6 mph /  7.4 km/h 4.6 mph /  7.4 km/h 59 % 0 in /  0.0 mm
14:28 75.7 °F /  24.3 °C 59.9 °F /  15.5 °C 30.1 in /  1019.9 hPa WSW 5.8 mph /  9.3 km/h 5.8 mph /  9.3 km/h 58 % 0 in /  0.0 mm
14:33 75.7 °F /  24.3 °C 58.5 °F /  14.7 °C 30.1 in /  1019.9 hPa South 3.5 mph /  5.6 km/h 3.5 mph /  5.6 km/h 55 % 0 in /  0.0 mm
14:38 75.7 °F /  24.3 °C 58.5 °F /  14.7 °C 30.1 in /  1019.9 hPa South 3.5 mph /  5.6 km/h 3.5 mph /  5.6 km/h 55 % 0 in /  0.0 mm
14:43 75.9 °F /  24.4 °C 59.5 °F /  15.3 °C 30.1 in /  1019.9 hPa WNW 3.1 mph /  5.0 km/h 3.1 mph /  5.0 km/h 57 % 0 in /  0.0 mm
14:48 76.3 °F /  24.6 °C 60.4 °F /  15.8 °C 30.1 in /  1019.9 hPa SSW 5.8 mph /  9.3 km/h 5.8 mph /  9.3 km/h 58 % 0 in /  0.0 mm
14:53 76.5 °F /  24.7 °C 59.5 °F /  15.3 °C 30.1 in /  1019.9 hPa SSW 3.5 mph /  5.6 km/h 3.5 mph /  5.6 km/h 56 % 0 in /  0.0 mm
14:58 75.9 °F /  24.4 °C 59.5 °F /  15.3 °C 30.1 in /  1018.8 hPa SW 3.5 mph /  5.6 km/h 3.5 mph /  5.6 km/h 57 % 0 in /  0.0 mm
15:03 76.5 °F /  24.7 °C 59.2 °F /  15.1 °C 30.1 in /  1018.8 hPa SE 3.6 mph /  5.8 km/h 3.6 mph /  5.8 km/h 55 % 0 in /  0.0 mm
15:08 76.3 °F /  24.6 °C 58.8 °F /  14.9 °C 30.1 in /  1018.8 hPa South 3.5 mph /  5.6 km/h 3.5 mph /  5.6 km/h 55 % 0 in /  0.0 mm
15:13 76.8 °F /  24.9 °C 59.9 °F /  15.5 °C 30.1 in /  1018.8 hPa WSW 4.6 mph /  7.4 km/h 4.6 mph /  7.4 km/h 56 % 0 in /  0.0 mm
15:18 77 °F /  25.0 °C 58.6 °F /  14.8 °C 30.1 in /  1018.8 hPa SSE 2.9 mph /  4.7 km/h 2.9 mph /  4.7 km/h 53 % 0 in /  0.0 mm
15:23 77.4 °F /  25.2 °C 59.9 °F /  15.5 °C 30.1 in /  1018.8 hPa WSW 5.8 mph /  9.3 km/h 5.8 mph /  9.3 km/h 55 % 0 in /  0.0 mm
15:28 77.5 °F /  25.3 °C 59.5 °F /  15.3 °C 30.1 in /  1018.8 hPa South 4.6 mph /  7.4 km/h 4.6 mph /  7.4 km/h 54 % 0 in /  0.0 mm
15:33 77.2 °F /  25.1 °C 58.6 °F /  14.8 °C 30.1 in /  1018.8 hPa ENE 2.4 mph /  3.9 km/h 2.4 mph /  3.9 km/h 53 % 0 in /  0.0 mm
15:38 76.6 °F /  24.8 °C 58.6 °F /  14.8 °C 30.1 in /  1018.8 hPa SW 2.3 mph /  3.7 km/h 2.3 mph /  3.7 km/h 54 % 0 in /  0.0 mm
15:43 76.3 °F /  24.6 °C 58.5 °F /  14.7 °C 30.1 in /  1018.8 hPa North 2.3 mph /  3.7 km/h 2.3 mph /  3.7 km/h 54 % 0 in /  0.0 mm
15:48 75.9 °F /  24.4 °C 58.1 °F /  14.5 °C 30.1 in /  1018.8 hPa SSE 2.3 mph /  3.7 km/h 2.3 mph /  3.7 km/h 54 % 0 in /  0.0 mm
15:53 75.4 °F /  24.1 °C 57 °F /  13.9 °C 30.1 in /  1018.8 hPa ESE 2.9 mph /  4.7 km/h 2.9 mph /  4.7 km/h 53 % 0 in /  0.0 mm
15:58 75.2 °F /  24.0 °C 56.8 °F /  13.8 °C 30.1 in /  1018.8 hPa ESE 5.8 mph /  9.3 km/h 5.8 mph /  9.3 km/h 53 % 0 in /  0.0 mm
15:59 75.2 °F /  24.0 °C 56.8 °F /  13.8 °C 30.1 in /  1018.8 hPa ESE 5.8 mph /  9.3 km/h 5.8 mph /  9.3 km/h 53 % 0 in /  0.0 mm
16:04 75 °F /  23.9 °C 57.2 °F /  14.0 °C 30.1 in /  1018.8 hPa NNE 5.4 mph /  8.7 km/h 5.4 mph /  8.7 km/h 54 % 0 in /  0.0 mm
16:09 74.7 °F /  23.7 °C 57.4 °F /  14.1 °C 30.1 in /  1018.8 hPa ESE 8.1 mph /  13.0 km/h 8.1 mph /  13.0 km/h 55 % 0 in /  0.0 mm
16:14 74.8 °F /  23.8 °C 57.6 °F /  14.2 °C 30.1 in /  1018.8 hPa ESE 9.2 mph /  14.8 km/h 9.2 mph /  14.8 km/h 55 % 0 in /  0.0 mm
16:19 74.7 °F /  23.7 °C 57.4 °F /  14.1 °C 30.1 in /  1018.8 hPa ESE 6.9 mph /  11.1 km/h 6.9 mph /  11.1 km/h 55 % 0 in /  0.0 mm
16:29 75 °F /  23.9 °C 57.7 °F /  14.3 °C 30.1 in /  1018.8 hPa NE 5.6 mph /  9.0 km/h 5.6 mph /  9.0 km/h 55 % 0 in /  0.0 mm
16:34 75 °F /  23.9 °C 57.2 °F /  14.0 °C 30.1 in /  1018.8 hPa ESE 4.6 mph /  7.4 km/h 4.6 mph /  7.4 km/h 54 % 0 in /  0.0 mm
16:39 75 °F /  23.9 °C 57.7 °F /  14.3 °C 30.1 in /  1018.8 hPa ESE 3.8 mph /  6.1 km/h 3.8 mph /  6.1 km/h 55 % 0 in /  0.0 mm
16:44 74.8 °F /  23.8 °C 57.6 °F /  14.2 °C 30.1 in /  1018.8 hPa East 3.5 mph /  5.6 km/h 3.5 mph /  5.6 km/h 55 % 0 in /  0.0 mm
16:49 75.7 °F /  24.3 °C 58.5 °F /  14.7 °C 30.1 in /  1018.8 hPa South 3.5 mph /  5.6 km/h 3.5 mph /  5.6 km/h 55 % 0 in /  0.0 mm
16:54 75.7 °F /  24.3 °C 58.8 °F /  14.9 °C 30.1 in /  1018.8 hPa SSW 3.1 mph /  5.0 km/h 3.1 mph /  5.0 km/h 56 % 0 in /  0.0 mm
16:59 75.7 °F /  24.3 °C 59.4 °F /  15.2 °C 30.1 in /  1018.8 hPa WSW 4.3 mph /  6.9 km/h 4.3 mph /  6.9 km/h 57 % 0 in /  0.0 mm
17:04 76.1 °F /  24.5 °C 59.7 °F /  15.4 °C 30.1 in /  1018.8 hPa SW 4.7 mph /  7.6 km/h 4.7 mph /  7.6 km/h 57 % 0 in /  0.0 mm
17:09 75.6 °F /  24.2 °C 58.8 °F /  14.9 °C 30.1 in /  1018.8 hPa West 4.6 mph /  7.4 km/h 4.6 mph /  7.4 km/h 56 % 0 in /  0.0 mm
17:14 75.9 °F /  24.4 °C 59.2 °F /  15.1 °C 30.1 in /  1018.8 hPa SW 6.9 mph /  11.1 km/h 6.9 mph /  11.1 km/h 56 % 0 in /  0.0 mm
17:19 75.9 °F /  24.4 °C 59.2 °F /  15.1 °C 30.1 in /  1018.8 hPa West 5.8 mph /  9.3 km/h 5.8 mph /  9.3 km/h 56 % 0 in /  0.0 mm
17:41 75 °F /  23.9 °C 59.2 °F /  15.1 °C 30.1 in /  1018.8 hPa SSW 3.5 mph /  5.6 km/h 4 mph /  6.4 km/h 58 % 0 in /  0.0 mm
17:46 74.7 °F /  23.7 °C 58.8 °F /  14.9 °C 30.1 in /  1018.8 hPa South 5.8 mph /  9.3 km/h 5.8 mph /  9.3 km/h 58 % 0 in /  0.0 mm
17:51 74.1 °F /  23.4 °C 58.5 °F /  14.7 °C 30.1 in /  1018.8 hPa SW 5.8 mph /  9.3 km/h 5.8 mph /  9.3 km/h 58 % 0 in /  0.0 mm
17:56 73.6 °F /  23.1 °C 57.9 °F /  14.4 °C 30.1 in /  1018.8 hPa SW 8.1 mph /  13.0 km/h 8.1 mph /  13.0 km/h 58 % 0 in /  0.0 mm
18:01 73.2 °F /  22.9 °C 57.9 °F /  14.4 °C 30.1 in /  1018.8 hPa SW 3.5 mph /  5.6 km/h 3.5 mph /  5.6 km/h 59 % 0 in /  0.0 mm
18:06 73 °F /  22.8 °C 57.9 °F /  14.4 °C 30.1 in /  1018.8 hPa WSW 5.9 mph /  9.5 km/h 5.9 mph /  9.5 km/h 59 % 0 in /  0.0 mm
18:11 72.5 °F /  22.5 °C 57.4 °F /  14.1 °C 30.1 in /  1019.9 hPa SW 3.5 mph /  5.6 km/h 3.8 mph /  6.1 km/h 59 % 0 in /  0.0 mm
18:16 72.1 °F /  22.3 °C 57.6 °F /  14.2 °C 30.1 in /  1019.9 hPa SW 4.6 mph /  7.4 km/h 4.6 mph /  7.4 km/h 60 % 0 in /  0.0 mm
18:21 71.8 °F /  22.1 °C 57 °F /  13.9 °C 30.1 in /  1019.9 hPa WSW 4.6 mph /  7.4 km/h 4.6 mph /  7.4 km/h 60 % 0 in /  0.0 mm
18:26 71.4 °F /  21.9 °C 57.7 °F /  14.3 °C 30.1 in /  1019.9 hPa SW 4.6 mph /  7.4 km/h 4.6 mph /  7.4 km/h 62 % 0 in /  0.0 mm
18:31 71.2 °F /  21.8 °C 57.6 °F /  14.2 °C 30.1 in /  1019.9 hPa SW 5.8 mph /  9.3 km/h 5.8 mph /  9.3 km/h 62 % 0 in /  0.0 mm
18:36 70.9 °F /  21.6 °C 57.7 °F /  14.3 °C 30.1 in /  1019.9 hPa WSW 4.6 mph /  7.4 km/h 4.6 mph /  7.4 km/h 63 % 0 in /  0.0 mm
18:41 70.5 °F /  21.4 °C 57.7 °F /  14.3 °C 30.1 in /  1019.9 hPa SSW 3.6 mph /  5.8 km/h 3.6 mph /  5.8 km/h 64 % 0 in /  0.0 mm
18:46 70.2 °F /  21.2 °C 57.4 °F /  14.1 °C 30.1 in /  1019.9 hPa WSW 5.8 mph /  9.3 km/h 5.8 mph /  9.3 km/h 64 % 0 in /  0.0 mm
18:51 70 °F /  21.1 °C 57.7 °F /  14.3 °C 30.1 in /  1019.9 hPa WSW 3.5 mph /  5.6 km/h 3.5 mph /  5.6 km/h 65 % 0 in /  0.0 mm
18:56 69.6 °F /  20.9 °C 57.7 °F /  14.3 °C 30.1 in /  1019.9 hPa SW 4.3 mph /  6.9 km/h 4.3 mph /  6.9 km/h 66 % 0 in /  0.0 mm
19:01 69.4 °F /  20.8 °C 57.6 °F /  14.2 °C 30.1 in /  1019.9 hPa WSW 3.5 mph /  5.6 km/h 3.5 mph /  5.6 km/h 66 % 0 in /  0.0 mm
19:06 69.3 °F /  20.7 °C 57.7 °F /  14.3 °C 30.1 in /  1019.9 hPa South 5.8 mph /  9.3 km/h 5.8 mph /  9.3 km/h 67 % 0 in /  0.0 mm
19:11 69.1 °F /  20.6 °C 57.7 °F /  14.3 °C 30.1 in /  1018.8 hPa SW 4.6 mph /  7.4 km/h 4.6 mph /  7.4 km/h 67 % 0 in /  0.0 mm
19:16 68.7 °F /  20.4 °C 57.7 °F /  14.3 °C 30.1 in /  1018.8 hPa West 4.6 mph /  7.4 km/h 4.6 mph /  7.4 km/h 68 % 0 in /  0.0 mm
19:21 68.5 °F /  20.3 °C 57.6 °F /  14.2 °C 30.1 in /  1018.8 hPa WSW 3.5 mph /  5.6 km/h 3.5 mph /  5.6 km/h 68 % 0 in /  0.0 mm
19:26 68.4 °F /  20.2 °C 57.4 °F /  14.1 °C 30.1 in /  1019.9 hPa WSW 4.6 mph /  7.4 km/h 4.6 mph /  7.4 km/h 68 % 0 in /  0.0 mm
19:30 64 °F /  17.8 °C 58.8 °F /  14.9 °C 30.2 in /  1021.9 hPa West 1 mph /  1.6 km/h 2 mph /  3.2 km/h 83 % 0 in /  0.0 mm
19:31 68.4 °F /  20.2 °C 57.7 °F /  14.3 °C 30.1 in /  1019.9 hPa WSW 5.8 mph /  9.3 km/h 5.8 mph /  9.3 km/h 69 % 0 in /  0.0 mm
19:36 68 °F /  20.0 °C 57.4 °F /  14.1 °C 30.1 in /  1019.9 hPa SW 2.4 mph /  3.9 km/h 2.4 mph /  3.9 km/h 69 % 0 in /  0.0 mm
19:40 64.2 °F /  17.9 °C 58.8 °F /  14.9 °C 30.2 in /  1021.9 hPa Calm   1 mph /  1.6 km/h 83 % 0 in /  0.0 mm
19:41 67.8 °F /  19.9 °C 58.1 °F /  14.5 °C 30.1 in /  1019.9 hPa SW 2.9 mph /  4.7 km/h 2.9 mph /  4.7 km/h 71 % 0 in /  0.0 mm
19:46 67.6 °F /  19.8 °C 57.9 °F /  14.4 °C 30.1 in /  1019.9 hPa WSW 2.3 mph /  3.7 km/h 2.3 mph /  3.7 km/h 71 % 0 in /  0.0 mm
19:50 64.2 °F /  17.9 °C 58.8 °F /  14.9 °C 30.2 in /  1021.9 hPa WSW 1 mph /  1.6 km/h 2 mph /  3.2 km/h 83 % 0 in /  0.0 mm
19:51 67.5 °F /  19.7 °C 58.1 °F /  14.5 °C 30.1 in /  1019.9 hPa West 2.3 mph /  3.7 km/h 2.3 mph /  3.7 km/h 72 % 0 in /  0.0 mm
19:56 67.3 °F /  19.6 °C 57.9 °F /  14.4 °C 30.1 in /  1019.9 hPa SW 2.3 mph /  3.7 km/h 2.3 mph /  3.7 km/h 72 % 0 in /  0.0 mm
20:00 64.4 °F /  18.0 °C 58.8 °F /  14.9 °C 30.2 in /  1022.9 hPa Calm   2 mph /  3.2 km/h 82 % 0 in /  0.0 mm
20:01 67.3 °F /  19.6 °C 57.9 °F /  14.4 °C 30.1 in /  1019.9 hPa SW 2.3 mph /  3.7 km/h 2.3 mph /  3.7 km/h 72 % 0 in /  0.0 mm
20:03 67.3 °F /  19.6 °C 58.3 °F /  14.6 °C 30.1 in /  1019.9 hPa SW 1.2 mph /  1.9 km/h 1.2 mph /  1.9 km/h 73 % 0 in /  0.0 mm
20:08 67.1 °F /  19.5 °C 58.3 °F /  14.6 °C 30.1 in /  1019.9 hPa West 1.4 mph /  2.3 km/h 1.4 mph /  2.3 km/h 73 % 0 in /  0.0 mm
20:10 64.2 °F /  17.9 °C 58.6 °F /  14.8 °C 30.2 in /  1022.9 hPa West 1 mph /  1.6 km/h 2 mph /  3.2 km/h 82 % 0 in /  0.0 mm
20:18 66.9 °F /  19.4 °C 57.9 °F /  14.4 °C 30.1 in /  1019.9 hPa Calm     73 % 0 in /  0.0 mm
20:20 64.2 °F /  17.9 °C 57.9 °F /  14.4 °C 30.2 in /  1022.9 hPa NW 1 mph /  1.6 km/h 3 mph /  4.8 km/h 80 % 0 in /  0.0 mm
20:23 66.7 °F /  19.3 °C 57.7 °F /  14.3 °C 30.1 in /  1019.9 hPa West 1.2 mph /  1.9 km/h   73 % 0 in /  0.0 mm
20:28 66.7 °F /  19.3 °C 58.3 °F /  14.6 °C 30.1 in /  1019.9 hPa NW 1.2 mph /  1.9 km/h   74 % 0 in /  0.0 mm
20:30 64 °F /  17.8 °C 57 °F /  13.9 °C 30.2 in /  1022.9 hPa West 2 mph /  3.2 km/h 6 mph /  9.7 km/h 78 % 0 in /  0.0 mm
20:33 66.6 °F /  19.2 °C 57.9 °F /  14.4 °C 30.1 in /  1019.9 hPa Calm     74 % 0 in /  0.0 mm
20:38 66.6 °F /  19.2 °C 57.9 °F /  14.4 °C 30.1 in /  1019.9 hPa NW 1.2 mph /  1.9 km/h   74 % 0 in /  0.0 mm
20:43 66.6 °F /  19.2 °C 57.9 °F /  14.4 °C 30.2 in /  1020.9 hPa West 2.3 mph /  3.7 km/h 2.3 mph /  3.7 km/h 74 % 0 in /  0.0 mm
20:45 64.4 °F /  18.0 °C 56.3 °F /  13.5 °C 30.2 in /  1022.9 hPa West 2 mph /  3.2 km/h 4 mph /  6.4 km/h 75 % 0 in /  0.0 mm
20:48 66.4 °F /  19.1 °C 57.7 °F /  14.3 °C 30.2 in /  1020.9 hPa West 2.3 mph /  3.7 km/h 2.3 mph /  3.7 km/h 74 % 0 in /  0.0 mm
20:53 66.2 °F /  19.0 °C 57.7 °F /  14.3 °C 30.2 in /  1020.9 hPa WNW 1.2 mph /  1.9 km/h 1.2 mph /  1.9 km/h 74 % 0 in /  0.0 mm
20:55 64.2 °F /  17.9 °C 55.4 °F /  13.0 °C 30.2 in /  1022.9 hPa West 1 mph /  1.6 km/h 2 mph /  3.2 km/h 73 % 0 in /  0.0 mm
20:58 66.2 °F /  19.0 °C 57.7 °F /  14.3 °C 30.2 in /  1020.9 hPa Calm     74 % 0 in /  0.0 mm
21:03 66 °F /  18.9 °C 58.3 °F /  14.6 °C 30.2 in /  1020.9 hPa Calm     76 % 0 in /  0.0 mm
21:05 64 °F /  17.8 °C 54.9 °F /  12.7 °C 30.2 in /  1022.9 hPa WNW 1 mph /  1.6 km/h 3 mph /  4.8 km/h 72 % 0 in /  0.0 mm
21:08 65.8 °F /  18.8 °C 58.1 °F /  14.5 °C 30.2 in /  1020.9 hPa West 1.2 mph /  1.9 km/h 1.2 mph /  1.9 km/h 76 % 0 in /  0.0 mm
21:13 65.8 °F /  18.8 °C 58.1 °F /  14.5 °C 30.2 in /  1020.9 hPa WSW 3.1 mph /  5.0 km/h 3.1 mph /  5.0 km/h 76 % 0 in /  0.0 mm
21:15 63.9 °F /  17.7 °C 54.3 °F /  12.4 °C 30.2 in /  1022.9 hPa WNW 1 mph /  1.6 km/h 2 mph /  3.2 km/h 71 % 0 in /  0.0 mm
21:18 66 °F /  18.9 °C 58.3 °F /  14.6 °C 30.2 in /  1020.9 hPa West 2.4 mph /  3.9 km/h 2.4 mph /  3.9 km/h 76 % 0 in /  0.0 mm
21:23 66 °F /  18.9 °C 58.3 °F /  14.6 °C 30.2 in /  1020.9 hPa West 3.5 mph /  5.6 km/h 3.5 mph /  5.6 km/h 76 % 0 in /  0.0 mm
21:25 63.3 °F /  17.4 °C 53.8 °F /  12.1 °C 30.2 in /  1022.9 hPa WNW 2 mph /  3.2 km/h 2 mph /  3.2 km/h 71 % 0 in /  0.0 mm
21:28 66 °F /  18.9 °C 58.3 °F /  14.6 °C 30.2 in /  1021.9 hPa West 3.1 mph /  5.0 km/h 3.1 mph /  5.0 km/h 76 % 0 in /  0.0 mm
21:33 65.8 °F /  18.8 °C 58.5 °F /  14.7 °C 30.2 in /  1021.9 hPa WSW 2.3 mph /  3.7 km/h 2.3 mph /  3.7 km/h 77 % 0 in /  0.0 mm
21:35 63.3 °F /  17.4 °C 53.4 °F /  11.9 °C 30.2 in /  1022.9 hPa West 1 mph /  1.6 km/h 4 mph /  6.4 km/h 70 % 0 in /  0.0 mm
21:38 65.7 °F /  18.7 °C 58.3 °F /  14.6 °C 30.2 in /  1021.9 hPa ESE 1.2 mph /  1.9 km/h   77 % 0 in /  0.0 mm
21:43 65.3 °F /  18.5 °C 58.3 °F /  14.6 °C 30.2 in /  1020.9 hPa ESE 3.5 mph /  5.6 km/h 3.5 mph /  5.6 km/h 78 % 0 in /  0.0 mm
21:45 63 °F /  17.2 °C 53.1 °F /  11.7 °C 30.2 in /  1022.9 hPa West 2 mph /  3.2 km/h 3 mph /  4.8 km/h 70 % 0 in /  0.0 mm
21:48 65.3 °F /  18.5 °C 57.9 °F /  14.4 °C 30.2 in /  1020.9 hPa West 2.2 mph /  3.5 km/h 2.2 mph /  3.5 km/h 77 % 0 in /  0.0 mm
21:53 65.3 °F /  18.5 °C 58.3 °F /  14.6 °C 30.2 in /  1020.9 hPa West 1.2 mph /  1.9 km/h   78 % 0 in /  0.0 mm
21:58 65.1 °F /  18.4 °C 58.1 °F /  14.5 °C 30.2 in /  1021.9 hPa Calm     78 % 0 in /  0.0 mm
22:03 64.9 °F /  18.3 °C 57.9 °F /  14.4 °C 30.2 in /  1021.9 hPa Calm     78 % 0 in /  0.0 mm
22:05 62.8 °F /  17.1 °C 51.3 °F /  10.7 °C 30.2 in /  1022.9 hPa Calm   6 mph /  9.7 km/h 66 % 0 in /  0.0 mm
22:08 64.8 °F /  18.2 °C 57.7 °F /  14.3 °C 30.2 in /  1021.9 hPa NE 1.6 mph /  2.6 km/h 1.6 mph /  2.6 km/h 78 % 0 in /  0.0 mm
22:13 64.6 °F /  18.1 °C 57.9 °F /  14.4 °C 30.2 in /  1021.9 hPa ESE 3.8 mph /  6.1 km/h 3.8 mph /  6.1 km/h 79 % 0 in /  0.0 mm
22:15 62.6 °F /  17.0 °C 51.1 °F /  10.6 °C 30.2 in /  1022.9 hPa Calm   1 mph /  1.6 km/h 66 % 0 in /  0.0 mm
22:18 64.6 °F /  18.1 °C 57.9 °F /  14.4 °C 30.2 in /  1021.9 hPa East 2.3 mph /  3.7 km/h 2.3 mph /  3.7 km/h 79 % 0 in /  0.0 mm
22:23 64.6 °F /  18.1 °C 57.9 °F /  14.4 °C 30.2 in /  1021.9 hPa East 1.2 mph /  1.9 km/h 1.2 mph /  1.9 km/h 79 % 0 in /  0.0 mm
22:25 62.4 °F /  16.9 °C 50.9 °F /  10.5 °C 30.2 in /  1022.9 hPa WSW 2 mph /  3.2 km/h 3 mph /  4.8 km/h 66 % 0 in /  0.0 mm
22:28 64.4 °F /  18.0 °C 57.7 °F /  14.3 °C 30.2 in /  1021.9 hPa East 2.3 mph /  3.7 km/h 2.3 mph /  3.7 km/h 79 % 0 in /  0.0 mm
22:33 64.2 °F /  17.9 °C 57.6 °F /  14.2 °C 30.2 in /  1021.9 hPa Calm     79 % 0 in /  0.0 mm
22:35 62.2 °F /  16.8 °C 49.8 °F /  9.9 °C 30.2 in /  1022.9 hPa WSW 1 mph /  1.6 km/h 4 mph /  6.4 km/h 64 % 0 in /  0.0 mm
22:38 64 °F /  17.8 °C 57.4 °F /  14.1 °C 30.2 in /  1021.9 hPa Calm     79 % 0 in /  0.0 mm
22:43 64 °F /  17.8 °C 57.7 °F /  14.3 °C 30.2 in /  1021.9 hPa Calm     80 % 0 in /  0.0 mm
22:45 62.1 °F /  16.7 °C 49.3 °F /  9.6 °C 30.2 in /  1022.9 hPa West 1 mph /  1.6 km/h 2 mph /  3.2 km/h 63 % 0 in /  0.0 mm
22:48 64 °F /  17.8 °C 57.7 °F /  14.3 °C 30.2 in /  1021.9 hPa East 1.2 mph /  1.9 km/h 1.2 mph /  1.9 km/h 80 % 0 in /  0.0 mm
22:55 61.7 °F /  16.5 °C 48.9 °F /  9.4 °C 30.2 in /  1022.9 hPa West 2 mph /  3.2 km/h 4 mph /  6.4 km/h 63 % 0 in /  0.0 mm
22:58 63.9 °F /  17.7 °C 57.9 °F /  14.4 °C 30.2 in /  1020.9 hPa Calm     81 % 0 in /  0.0 mm
23:03 64 °F /  17.8 °C 58.1 °F /  14.5 °C 30.2 in /  1020.9 hPa Calm     81 % 0 in /  0.0 mm
23:05 61.3 °F /  16.3 °C 48.6 °F /  9.2 °C 30.2 in /  1023.9 hPa WSW 2 mph /  3.2 km/h 2 mph /  3.2 km/h 63 % 0 in /  0.0 mm
23:08 64 °F /  17.8 °C 58.1 °F /  14.5 °C 30.2 in /  1020.9 hPa Calm     81 % 0 in /  0.0 mm
23:13 64 °F /  17.8 °C 58.1 °F /  14.5 °C 30.2 in /  1020.9 hPa ENE 1.2 mph /  1.9 km/h 1.2 mph /  1.9 km/h 81 % 0 in /  0.0 mm
23:15 61 °F /  16.1 °C 48.4 °F /  9.1 °C 30.2 in /  1023.9 hPa Calm   2 mph /  3.2 km/h 63 % 0 in /  0.0 mm
23:18 64 °F /  17.8 °C 58.5 °F /  14.7 °C 30.2 in /  1020.9 hPa Calm     82 % 0 in /  0.0 mm
23:23 63.9 °F /  17.7 °C 57.9 °F /  14.4 °C 30.2 in /  1020.9 hPa Calm     81 % 0 in /  0.0 mm
23:25 60.8 °F /  16.0 °C 48 °F /  8.9 °C 30.2 in /  1023.9 hPa Calm   2 mph /  3.2 km/h 63 % 0 in /  0.0 mm
23:28 63.9 °F /  17.7 °C 58.3 °F /  14.6 °C 30.2 in /  1021.9 hPa Calm     82 % 0 in /  0.0 mm
23:33 63.9 °F /  17.7 °C 58.3 °F /  14.6 °C 30.2 in /  1021.9 hPa ENE 1.2 mph /  1.9 km/h   82 % 0 in /  0.0 mm
23:35 60.4 °F /  15.8 °C 47.8 °F /  8.8 °C 30.2 in /  1022.9 hPa WSW 3 mph /  4.8 km/h 3 mph /  4.8 km/h 63 % 0 in /  0.0 mm
23:38 63.9 °F /  17.7 °C 58.3 °F /  14.6 °C 30.2 in /  1021.9 hPa Calm     82 % 0 in /  0.0 mm
23:43 63.7 °F /  17.6 °C 58.1 °F /  14.5 °C 30.2 in /  1021.9 hPa Calm     82 % 0 in /  0.0 mm
23:45 60.1 °F /  15.6 °C 46.6 °F /  8.1 °C 30.2 in /  1023.9 hPa West 2 mph /  3.2 km/h 4 mph /  6.4 km/h 61 % 0 in /  0.0 mm
23:48 63.7 °F /  17.6 °C 58.1 °F /  14.5 °C 30.2 in /  1021.9 hPa Calm     82 % 0 in /  0.0 mm
23:53 63.7 °F /  17.6 °C 58.1 °F /  14.5 °C 30.2 in /  1021.9 hPa Calm     82 % 0 in /  0.0 mm
23:55 59.9 °F /  15.5 °C 46.4 °F /  8.0 °C 30.2 in /  1023.9 hPa West 1 mph /  1.6 km/h 3 mph /  4.8 km/h 61 % 0 in /  0.0 mm
23:58 63.9 °F /  17.7 °C 58.3 °F /  14.6 °C 30.2 in /  1021.9 hPa ENE 1.6 mph /  2.6 km/h 1.6 mph /  2.6 km/h 82 % 0 in /  0.0 mm
Meteo Sesrovires
Elogis d' Weather Underground - 3.5 mb

Guio original per  Jim McMurry - jmcmurry@mwt.net Adaptat per a la plantilla per  Wim van der Kuil - Leuven-Template.eu

Trobareu la nostra informacio del temps tambe a:

Weather Underground

AWEKAS